sensor_id;sensor_type;location;lat;lon;timestamp;pressure;altitude;pressure_sealevel;temperature;humidity
59419;BME280;45224;50.904;6.038;2022-12-07T00:00:48;100005.91;;;4.49;100.00
59419;BME280;45224;50.904;6.038;2022-12-07T00:02:18;100012.00;;;4.52;100.00
59419;BME280;45224;50.904;6.038;2022-12-07T00:03:50;100001.69;;;4.49;100.00
59419;BME280;45224;50.904;6.038;2022-12-07T00:05:21;99997.38;;;4.48;100.00
59419;BME280;45224;50.904;6.038;2022-12-07T00:06:52;99996.56;;;4.49;100.00
59419;BME280;45224;50.904;6.038;2022-12-07T00:08:23;100003.47;;;4.53;100.00
59419;BME280;45224;50.904;6.038;2022-12-07T00:09:53;99995.84;;;4.55;100.00
59419;BME280;45224;50.904;6.038;2022-12-07T00:11:24;100001.03;;;4.58;100.00
59419;BME280;45224;50.904;6.038;2022-12-07T00:12:55;99995.16;;;4.61;100.00
59419;BME280;45224;50.904;6.038;2022-12-07T00:14:25;100000.97;;;4.55;100.00
59419;BME280;45224;50.904;6.038;2022-12-07T00:16:00;100009.44;;;4.52;100.00
59419;BME280;45224;50.904;6.038;2022-12-07T00:17:31;99997.63;;;4.57;100.00
59419;BME280;45224;50.904;6.038;2022-12-07T00:19:03;99990.88;;;4.61;100.00
59419;BME280;45224;50.904;6.038;2022-12-07T00:20:33;99992.59;;;4.61;100.00
59419;BME280;45224;50.904;6.038;2022-12-07T00:22:04;99987.47;;;4.61;100.00
59419;BME280;45224;50.904;6.038;2022-12-07T00:23:34;99986.53;;;4.57;100.00
59419;BME280;45224;50.904;6.038;2022-12-07T00:25:05;99983.94;;;4.55;100.00
59419;BME280;45224;50.904;6.038;2022-12-07T00:26:37;99986.53;;;4.58;100.00
59419;BME280;45224;50.904;6.038;2022-12-07T00:28:09;99983.16;;;4.60;100.00
59419;BME280;45224;50.904;6.038;2022-12-07T00:29:41;99982.34;;;4.61;100.00
59419;BME280;45224;50.904;6.038;2022-12-07T00:31:12;99985.41;;;4.49;100.00
59419;BME280;45224;50.904;6.038;2022-12-07T00:32:43;99986.41;;;4.52;100.00
59419;BME280;45224;50.904;6.038;2022-12-07T00:34:19;99977.81;;;4.52;100.00
59419;BME280;45224;50.904;6.038;2022-12-07T00:35:55;99979.56;;;4.53;100.00
59419;BME280;45224;50.904;6.038;2022-12-07T00:37:26;99980.44;;;4.53;100.00
59419;BME280;45224;50.904;6.038;2022-12-07T00:38:59;99987.13;;;4.48;100.00
59419;BME280;45224;50.904;6.038;2022-12-07T00:40:30;99973.28;;;4.42;100.00
59419;BME280;45224;50.904;6.038;2022-12-07T00:42:00;99974.25;;;4.45;100.00
59419;BME280;45224;50.904;6.038;2022-12-07T00:43:31;99977.66;;;4.44;100.00
59419;BME280;45224;50.904;6.038;2022-12-07T00:45:02;99986.22;;;4.46;100.00
59419;BME280;45224;50.904;6.038;2022-12-07T00:46:32;99981.00;;;4.43;100.00
59419;BME280;45224;50.904;6.038;2022-12-07T00:48:03;99983.72;;;4.48;100.00
59419;BME280;45224;50.904;6.038;2022-12-07T00:49:33;99981.19;;;4.49;100.00
59419;BME280;45224;50.904;6.038;2022-12-07T00:51:04;99982.03;;;4.50;100.00
59419;BME280;45224;50.904;6.038;2022-12-07T00:52:35;99976.88;;;4.48;100.00
59419;BME280;45224;50.904;6.038;2022-12-07T00:54:05;99980.97;;;4.42;100.00
59419;BME280;45224;50.904;6.038;2022-12-07T00:55:36;99975.63;;;4.34;100.00
59419;BME280;45224;50.904;6.038;2022-12-07T00:57:07;99978.44;;;4.43;100.00
59419;BME280;45224;50.904;6.038;2022-12-07T00:58:37;99976.75;;;4.44;100.00
59419;BME280;45224;50.904;6.038;2022-12-07T01:00:08;99962.09;;;4.38;100.00
59419;BME280;45224;50.904;6.038;2022-12-07T01:01:38;99976.66;;;4.41;100.00
59419;BME280;45224;50.904;6.038;2022-12-07T01:03:11;99967.31;;;4.41;100.00
59419;BME280;45224;50.904;6.038;2022-12-07T01:04:41;99972.44;;;4.41;100.00
59419;BME280;45224;50.904;6.038;2022-12-07T01:06:16;99968.03;;;4.37;100.00
59419;BME280;45224;50.904;6.038;2022-12-07T01:07:47;99978.53;;;4.46;100.00
59419;BME280;45224;50.904;6.038;2022-12-07T01:09:17;99973.28;;;4.42;100.00
59419;BME280;45224;50.904;6.038;2022-12-07T01:10:49;99975.00;;;4.41;100.00
59419;BME280;45224;50.904;6.038;2022-12-07T01:12:19;99976.78;;;4.45;100.00
59419;BME280;45224;50.904;6.038;2022-12-07T01:13:55;99975.09;;;4.44;100.00
59419;BME280;45224;50.904;6.038;2022-12-07T01:15:26;99978.41;;;4.42;100.00
59419;BME280;45224;50.904;6.038;2022-12-07T01:16:56;99974.72;;;4.32;100.00
59419;BME280;45224;50.904;6.038;2022-12-07T01:18:28;99979.31;;;4.44;100.00
59419;BME280;45224;50.904;6.038;2022-12-07T01:19:59;99980.06;;;4.39;100.00
59419;BME280;45224;50.904;6.038;2022-12-07T01:21:31;99980.13;;;4.41;100.00
59419;BME280;45224;50.904;6.038;2022-12-07T01:23:07;99984.31;;;4.39;100.00
59419;BME280;45224;50.904;6.038;2022-12-07T01:24:37;99988.59;;;4.40;100.00
59419;BME280;45224;50.904;6.038;2022-12-07T01:26:11;99985.31;;;4.44;100.00
59419;BME280;45224;50.904;6.038;2022-12-07T01:27:42;99977.66;;;4.44;100.00
59419;BME280;45224;50.904;6.038;2022-12-07T01:29:13;99983.25;;;4.32;100.00
59419;BME280;45224;50.904;6.038;2022-12-07T01:30:43;99987.00;;;4.44;100.00
59419;BME280;45224;50.904;6.038;2022-12-07T01:32:13;99980.13;;;4.41;100.00
59419;BME280;45224;50.904;6.038;2022-12-07T01:33:46;99987.09;;;4.47;100.00
59419;BME280;45224;50.904;6.038;2022-12-07T01:35:17;99988.78;;;4.46;100.00
59419;BME280;45224;50.904;6.038;2022-12-07T01:36:47;99990.34;;;4.41;100.00
59419;BME280;45224;50.904;6.038;2022-12-07T01:38:18;99986.91;;;4.41;100.00
59419;BME280;45224;50.904;6.038;2022-12-07T01:39:50;99982.75;;;4.44;100.00
59419;BME280;45224;50.904;6.038;2022-12-07T01:41:20;99985.31;;;4.44;100.00
59419;BME280;45224;50.904;6.038;2022-12-07T01:42:51;99991.13;;;4.38;100.00
59419;BME280;45224;50.904;6.038;2022-12-07T01:44:26;99991.06;;;4.37;100.00
59419;BME280;45224;50.904;6.038;2022-12-07T01:45:57;99980.84;;;4.37;100.00
59419;BME280;45224;50.904;6.038;2022-12-07T01:47:28;99985.19;;;4.39;100.00
59419;BME280;45224;50.904;6.038;2022-12-07T01:48:59;99986.03;;;4.40;100.00
59419;BME280;45224;50.904;6.038;2022-12-07T01:50:30;99991.16;;;4.40;100.00
59419;BME280;45224;50.904;6.038;2022-12-07T01:52:22;99990.34;;;4.41;100.00
59419;BME280;45224;50.904;6.038;2022-12-07T01:53:54;99988.66;;;4.42;100.00
59419;BME280;45224;50.904;6.038;2022-12-07T01:55:25;99981.75;;;4.39;100.00
59419;BME280;45224;50.904;6.038;2022-12-07T01:56:56;99983.56;;;4.43;100.00
59419;BME280;45224;50.904;6.038;2022-12-07T01:58:28;99974.00;;;4.37;100.00
59419;BME280;45224;50.904;6.038;2022-12-07T01:59:59;99991.25;;;4.43;100.00
59419;BME280;45224;50.904;6.038;2022-12-07T02:01:42;99979.28;;;4.42;100.00
59419;BME280;45224;50.904;6.038;2022-12-07T02:03:18;99984.38;;;4.42;100.00
59419;BME280;45224;50.904;6.038;2022-12-07T02:04:52;99978.41;;;4.42;100.00
59419;BME280;45224;50.904;6.038;2022-12-07T02:06:25;99981.97;;;4.47;100.00
59419;BME280;45224;50.904;6.038;2022-12-07T02:07:57;99972.44;;;4.41;100.00
59419;BME280;45224;50.904;6.038;2022-12-07T02:09:28;99969.03;;;4.42;100.00
59419;BME280;45224;50.904;6.038;2022-12-07T02:10:59;99969.84;;;4.39;100.00
59419;BME280;45224;50.904;6.038;2022-12-07T02:12:30;99969.84;;;4.39;100.00
59419;BME280;45224;50.904;6.038;2022-12-07T02:14:01;99951.06;;;4.41;100.00
59419;BME280;45224;50.904;6.038;2022-12-07T02:17:57;99962.34;;;4.47;100.00
59419;BME280;45224;50.904;6.038;2022-12-07T02:23:46;99965.66;;;4.43;100.00
59419;BME280;45224;50.904;6.038;2022-12-07T02:25:48;99959.59;;;4.39;100.00
59419;BME280;45224;50.904;6.038;2022-12-07T02:27:46;99968.16;;;4.42;100.00
59419;BME280;45224;50.904;6.038;2022-12-07T02:31:15;99965.66;;;4.43;100.00
59419;BME280;45224;50.904;6.038;2022-12-07T02:32:58;99968.00;;;4.35;100.00
59419;BME280;45224;50.904;6.038;2022-12-07T02:34:44;99963.00;;;4.40;100.00
59419;BME280;45224;50.904;6.038;2022-12-07T02:36:30;99966.28;;;4.36;100.00
59419;BME280;45224;50.904;6.038;2022-12-07T02:38:12;99964.84;;;4.44;100.00
59419;BME280;45224;50.904;6.038;2022-12-07T02:39:55;99965.47;;;4.37;100.00
59419;BME280;45224;50.904;6.038;2022-12-07T02:41:33;99958.69;;;4.39;100.00
59419;BME280;45224;50.904;6.038;2022-12-07T02:44:36;99961.16;;;4.36;100.00
59419;BME280;45224;50.904;6.038;2022-12-07T02:46:11;99961.06;;;4.31;100.00
59419;BME280;45224;50.904;6.038;2022-12-07T02:47:44;99950.91;;;4.34;100.00
59419;BME280;45224;50.904;6.038;2022-12-07T02:49:16;99961.13;;;4.33;100.00
59419;BME280;45224;50.904;6.038;2022-12-07T02:50:52;99957.72;;;4.34;100.00
59419;BME280;45224;50.904;6.038;2022-12-07T02:52:23;99952.53;;;4.32;100.00
59419;BME280;45224;50.904;6.038;2022-12-07T02:53:53;99961.16;;;4.34;100.00
59419;BME280;45224;50.904;6.038;2022-12-07T02:55:29;99962.91;;;4.37;100.00
59419;BME280;45224;50.904;6.038;2022-12-07T02:57:36;99965.47;;;4.37;100.00
59419;BME280;45224;50.904;6.038;2022-12-07T03:03:13;99954.25;;;4.32;100.00
59419;BME280;45224;50.904;6.038;2022-12-07T03:05:15;99955.91;;;4.30;100.00
59419;BME280;45224;50.904;6.038;2022-12-07T03:06:57;99952.31;;;4.25;100.00
59419;BME280;45224;50.904;6.038;2022-12-07T03:12:13;99965.22;;;4.28;100.00
59419;BME280;45224;50.904;6.038;2022-12-07T03:14:02;99960.91;;;4.25;100.00
59419;BME280;45224;50.904;6.038;2022-12-07T03:15:43;99960.91;;;4.25;100.00
59419;BME280;45224;50.904;6.038;2022-12-07T03:17:20;99959.06;;;4.21;100.00
59419;BME280;45224;50.904;6.038;2022-12-07T03:19:07;99958.47;;;4.30;100.00
59419;BME280;45224;50.904;6.038;2022-12-07T03:20:41;99961.75;;;4.26;100.00
59419;BME280;45224;50.904;6.038;2022-12-07T03:22:14;99971.31;;;4.31;100.00
59419;BME280;45224;50.904;6.038;2022-12-07T03:23:50;99966.88;;;4.26;100.00
59419;BME280;45224;50.904;6.038;2022-12-07T03:25:21;99960.94;;;4.27;100.00
59419;BME280;45224;50.904;6.038;2022-12-07T03:26:56;99961.94;;;4.32;100.00
59419;BME280;45224;50.904;6.038;2022-12-07T03:28:35;99968.78;;;4.33;100.00
59419;BME280;45224;50.904;6.038;2022-12-07T03:30:13;99955.06;;;4.31;100.00
59419;BME280;45224;50.904;6.038;2022-12-07T03:31:48;99962.75;;;4.31;100.00
59419;BME280;45224;50.904;6.038;2022-12-07T03:33:41;99964.63;;;4.36;100.00
59419;BME280;45224;50.904;6.038;2022-12-07T03:35:18;99954.28;;;4.33;100.00
59419;BME280;45224;50.904;6.038;2022-12-07T03:36:57;99958.63;;;4.36;100.00
59419;BME280;45224;50.904;6.038;2022-12-07T03:38:35;99962.03;;;4.35;100.00
59419;BME280;45224;50.904;6.038;2022-12-07T03:40:39;99959.41;;;4.33;100.00
59419;BME280;45224;50.904;6.038;2022-12-07T03:42:11;99957.56;;;4.29;100.00
59419;BME280;45224;50.904;6.038;2022-12-07T03:43:42;99959.25;;;4.27;100.00
59419;BME280;45224;50.904;6.038;2022-12-07T03:45:13;99959.28;;;4.29;100.00
59419;BME280;45224;50.904;6.038;2022-12-07T03:46:53;99964.34;;;4.27;100.00
59419;BME280;45224;50.904;6.038;2022-12-07T03:48:41;99956.81;;;4.32;100.00
59419;BME280;45224;50.904;6.038;2022-12-07T03:50:25;99955.03;;;4.29;100.00
59419;BME280;45224;50.904;6.038;2022-12-07T03:52:28;99956.91;;;4.35;100.00
59419;BME280;45224;50.904;6.038;2022-12-07T03:54:09;99955.09;;;4.32;100.00
59419;BME280;45224;50.904;6.038;2022-12-07T03:55:43;99961.34;;;4.42;100.00
59419;BME280;45224;50.904;6.038;2022-12-07T03:57:17;99955.25;;;4.37;100.00
59419;BME280;45224;50.904;6.038;2022-12-07T03:58:48;99955.38;;;4.42;100.00
59419;BME280;45224;50.904;6.038;2022-12-07T04:00:19;99964.75;;;4.41;100.00
59419;BME280;45224;50.904;6.038;2022-12-07T04:01:55;99957.84;;;4.38;100.00
59419;BME280;45224;50.904;6.038;2022-12-07T04:03:26;99966.50;;;4.44;100.00
59419;BME280;45224;50.904;6.038;2022-12-07T04:04:56;99963.81;;;4.39;100.00
59419;BME280;45224;50.904;6.038;2022-12-07T04:06:27;99964.66;;;4.38;100.00
59419;BME280;45224;50.904;6.038;2022-12-07T04:07:57;99962.09;;;4.38;100.00
59419;BME280;45224;50.904;6.038;2022-12-07T04:09:28;99949.72;;;4.22;100.00
59419;BME280;45224;50.904;6.038;2022-12-07T04:10:58;99960.19;;;4.31;100.00
59419;BME280;45224;50.904;6.038;2022-12-07T04:12:29;99956.03;;;4.34;100.00
59419;BME280;45224;50.904;6.038;2022-12-07T04:13:59;99956.03;;;4.34;100.00
59419;BME280;45224;50.904;6.038;2022-12-07T04:15:48;99955.19;;;4.35;100.00
59419;BME280;45224;50.904;6.038;2022-12-07T04:17:18;99950.94;;;4.36;100.00
59419;BME280;45224;50.904;6.038;2022-12-07T04:18:49;99952.69;;;4.37;100.00
59419;BME280;45224;50.904;6.038;2022-12-07T04:20:19;99945.00;;;4.37;100.00
59419;BME280;45224;50.904;6.038;2022-12-07T04:21:50;99948.31;;;4.33;100.00
59419;BME280;45224;50.904;6.038;2022-12-07T04:23:20;99944.66;;;4.25;100.00
59419;BME280;45224;50.904;6.038;2022-12-07T04:24:51;99950.13;;;4.37;100.00
59419;BME280;45224;50.904;6.038;2022-12-07T04:26:21;99954.44;;;4.38;100.00
59419;BME280;45224;50.904;6.038;2022-12-07T04:27:51;99953.59;;;4.39;100.00
59419;BME280;45224;50.904;6.038;2022-12-07T04:29:22;99942.41;;;4.35;100.00
59419;BME280;45224;50.904;6.038;2022-12-07T04:30:53;99953.63;;;4.41;100.00
59419;BME280;45224;50.904;6.038;2022-12-07T04:32:23;99948.47;;;4.39;100.00
59419;BME280;45224;50.904;6.038;2022-12-07T04:33:54;99942.44;;;4.37;100.00
59419;BME280;45224;50.904;6.038;2022-12-07T04:35:24;99946.75;;;4.38;100.00
59419;BME280;45224;50.904;6.038;2022-12-07T04:36:55;99942.41;;;4.35;100.00
59419;BME280;45224;50.904;6.038;2022-12-07T04:38:25;99949.03;;;4.29;100.00
59419;BME280;45224;50.904;6.038;2022-12-07T04:39:55;99941.50;;;4.33;100.00
59419;BME280;45224;50.904;6.038;2022-12-07T04:41:26;99951.69;;;4.32;100.00
59419;BME280;45224;50.904;6.038;2022-12-07T04:42:57;99950.22;;;4.40;100.00
59419;BME280;45224;50.904;6.038;2022-12-07T04:44:28;99948.38;;;4.36;100.00
59419;BME280;45224;50.904;6.038;2022-12-07T04:45:59;99949.22;;;4.35;100.00
59419;BME280;45224;50.904;6.038;2022-12-07T04:47:29;99939.63;;;4.28;100.00
59419;BME280;45224;50.904;6.038;2022-12-07T04:49:00;99941.44;;;4.32;100.00
59419;BME280;45224;50.904;6.038;2022-12-07T04:50:30;99940.63;;;4.33;100.00
59419;BME280;45224;50.904;6.038;2022-12-07T04:52:01;99950.03;;;4.34;100.00
59419;BME280;45224;50.904;6.038;2022-12-07T04:53:31;99944.06;;;4.33;100.00
59419;BME280;45224;50.904;6.038;2022-12-07T04:55:01;99946.66;;;4.35;100.00
59419;BME280;45224;50.904;6.038;2022-12-07T04:56:32;99939.78;;;4.34;100.00
59419;BME280;45224;50.904;6.038;2022-12-07T04:58:04;99939.97;;;4.40;100.00
59419;BME280;45224;50.904;6.038;2022-12-07T04:59:35;99944.00;;;4.32;100.00
59419;BME280;45224;50.904;6.038;2022-12-07T05:01:05;99941.44;;;4.32;100.00
59419;BME280;45224;50.904;6.038;2022-12-07T05:02:36;99945.81;;;4.34;100.00
59419;BME280;45224;50.904;6.038;2022-12-07T05:04:06;99944.91;;;4.34;100.00
59419;BME280;45224;50.904;6.038;2022-12-07T05:05:40;99943.25;;;4.36;100.00
59419;BME280;45224;50.904;6.038;2022-12-07T05:07:11;99938.13;;;4.36;100.00
59419;BME280;45224;50.904;6.038;2022-12-07T05:08:42;99942.44;;;4.37;100.00
59419;BME280;45224;50.904;6.038;2022-12-07T05:10:13;99945.91;;;4.39;100.00
59419;BME280;45224;50.904;6.038;2022-12-07T05:11:43;99947.59;;;4.38;100.00
59419;BME280;45224;50.904;6.038;2022-12-07T05:13:14;99948.41;;;4.37;100.00
59419;BME280;45224;50.904;6.038;2022-12-07T05:14:44;99948.47;;;4.39;100.00
59419;BME280;45224;50.904;6.038;2022-12-07T05:16:15;99936.59;;;4.41;100.00
59419;BME280;45224;50.904;6.038;2022-12-07T05:17:45;99934.75;;;4.37;100.00
59419;BME280;45224;50.904;6.038;2022-12-07T05:19:16;99943.09;;;4.30;100.00
59419;BME280;45224;50.904;6.038;2022-12-07T05:20:47;99946.56;;;4.32;100.00
59419;BME280;45224;50.904;6.038;2022-12-07T05:22:17;99943.09;;;4.30;100.00
59419;BME280;45224;50.904;6.038;2022-12-07T05:23:48;99945.81;;;4.34;100.00
59419;BME280;45224;50.904;6.038;2022-12-07T05:25:18;99941.44;;;4.32;100.00
59419;BME280;45224;50.904;6.038;2022-12-07T05:26:49;99937.91;;;4.27;100.00
59419;BME280;45224;50.904;6.038;2022-12-07T05:28:19;99943.94;;;4.29;100.00
59419;BME280;45224;50.904;6.038;2022-12-07T05:29:50;99934.53;;;4.29;100.00
59419;BME280;45224;50.904;6.038;2022-12-07T05:31:22;99937.94;;;4.28;100.00
59419;BME280;45224;50.904;6.038;2022-12-07T05:32:53;99938.75;;;4.27;100.00
59419;BME280;45224;50.904;6.038;2022-12-07T05:34:23;99938.75;;;4.27;100.00
59419;BME280;45224;50.904;6.038;2022-12-07T05:35:54;99941.38;;;4.29;100.00
59419;BME280;45224;50.904;6.038;2022-12-07T05:37:24;99939.38;;;4.18;100.00
59419;BME280;45224;50.904;6.038;2022-12-07T05:38:55;99929.16;;;4.18;100.00
59419;BME280;45224;50.904;6.038;2022-12-07T05:40:25;99939.38;;;4.18;100.00
59419;BME280;45224;50.904;6.038;2022-12-07T05:41:56;99944.66;;;4.25;100.00
59419;BME280;45224;50.904;6.038;2022-12-07T05:43:44;99942.22;;;4.29;100.00
59419;BME280;45224;50.904;6.038;2022-12-07T05:45:15;99943.09;;;4.30;100.00
59419;BME280;45224;50.904;6.038;2022-12-07T05:46:45;99938.63;;;4.23;100.00
59419;BME280;45224;50.904;6.038;2022-12-07T05:48:16;99943.09;;;4.30;100.00
59419;BME280;45224;50.904;6.038;2022-12-07T05:49:46;99943.03;;;4.27;100.00
59419;BME280;45224;50.904;6.038;2022-12-07T05:51:17;99942.09;;;4.25;100.00
59419;BME280;45224;50.904;6.038;2022-12-07T05:52:47;99936.25;;;4.29;100.00
59419;BME280;45224;50.904;6.038;2022-12-07T05:54:18;99935.25;;;4.24;100.00
59419;BME280;45224;50.904;6.038;2022-12-07T05:55:48;99934.34;;;4.22;100.00
59419;BME280;45224;50.904;6.038;2022-12-07T05:57:19;99937.91;;;4.27;100.00
59419;BME280;45224;50.904;6.038;2022-12-07T05:58:50;99933.59;;;4.26;100.00
59419;BME280;45224;50.904;6.038;2022-12-07T06:00:39;99936.25;;;4.29;100.00
59419;BME280;45224;50.904;6.038;2022-12-07T06:02:12;99935.38;;;4.28;100.00
59419;BME280;45224;50.904;6.038;2022-12-07T06:03:43;99937.81;;;4.24;100.00
59419;BME280;45224;50.904;6.038;2022-12-07T06:05:14;99934.34;;;4.22;100.00
59419;BME280;45224;50.904;6.038;2022-12-07T06:06:44;99940.28;;;4.20;100.00
59419;BME280;45224;50.904;6.038;2022-12-07T06:08:15;99939.38;;;4.18;100.00
59419;BME280;45224;50.904;6.038;2022-12-07T06:09:45;99953.94;;;4.21;100.00
59419;BME280;45224;50.904;6.038;2022-12-07T06:11:16;99940.19;;;4.17;100.00
59419;BME280;45224;50.904;6.038;2022-12-07T06:13:05;99940.41;;;4.25;100.00
59419;BME280;45224;50.904;6.038;2022-12-07T06:14:36;99938.66;;;4.24;100.00
59419;BME280;45224;50.904;6.038;2022-12-07T06:16:06;99941.19;;;4.23;100.00
59419;BME280;45224;50.904;6.038;2022-12-07T06:17:37;99946.41;;;4.26;100.00
59419;BME280;45224;50.904;6.038;2022-12-07T06:19:08;99940.41;;;4.25;100.00
59419;BME280;45224;50.904;6.038;2022-12-07T06:20:38;99941.28;;;4.26;100.00
59419;BME280;45224;50.904;6.038;2022-12-07T06:22:09;99940.38;;;4.24;100.00
59419;BME280;45224;50.904;6.038;2022-12-07T06:23:41;99948.97;;;4.26;100.00
59419;BME280;45224;50.904;6.038;2022-12-07T06:25:12;99947.28;;;4.28;100.00
59419;BME280;45224;50.904;6.038;2022-12-07T06:26:42;99944.75;;;4.28;100.00
59419;BME280;45224;50.904;6.038;2022-12-07T06:28:12;99942.94;;;4.24;100.00
59419;BME280;45224;50.904;6.038;2022-12-07T06:29:43;99942.13;;;4.26;100.00
59419;BME280;45224;50.904;6.038;2022-12-07T06:31:13;99948.13;;;4.27;100.00
59419;BME280;45224;50.904;6.038;2022-12-07T06:32:44;99943.84;;;4.26;100.00
59419;BME280;45224;50.904;6.038;2022-12-07T06:34:18;99945.53;;;4.25;100.00
59419;BME280;45224;50.904;6.038;2022-12-07T06:35:48;99944.56;;;4.20;100.00
59419;BME280;45224;50.904;6.038;2022-12-07T06:37:19;99941.19;;;4.23;100.00
59419;BME280;45224;50.904;6.038;2022-12-07T06:38:49;99937.59;;;4.16;100.00
59419;BME280;45224;50.904;6.038;2022-12-07T06:40:20;99943.69;;;4.21;100.00
59419;BME280;45224;50.904;6.038;2022-12-07T06:41:51;99944.50;;;4.18;100.00
59419;BME280;45224;50.904;6.038;2022-12-07T06:43:22;99940.91;;;4.12;100.00
59419;BME280;45224;50.904;6.038;2022-12-07T06:44:52;99938.34;;;4.13;100.00
59419;BME280;45224;50.904;6.038;2022-12-07T06:46:23;99942.75;;;4.17;100.00
59419;BME280;45224;50.904;6.038;2022-12-07T06:47:53;99941.09;;;4.19;100.00
59419;BME280;45224;50.904;6.038;2022-12-07T06:49:24;99937.47;;;4.11;100.00
59419;BME280;45224;50.904;6.038;2022-12-07T06:50:54;99941.75;;;4.12;100.00
59419;BME280;45224;50.904;6.038;2022-12-07T06:52:25;99942.66;;;4.14;100.00
59419;BME280;45224;50.904;6.038;2022-12-07T06:53:55;99945.00;;;4.07;100.00
59419;BME280;45224;50.904;6.038;2022-12-07T06:55:26;99946.88;;;4.12;100.00
59419;BME280;45224;50.904;6.038;2022-12-07T06:56:56;99953.00;;;4.17;100.00
59419;BME280;45224;50.904;6.038;2022-12-07T06:58:27;99953.00;;;4.17;100.00
59419;BME280;45224;50.904;6.038;2022-12-07T06:59:58;99949.44;;;4.12;100.00
59419;BME280;45224;50.904;6.038;2022-12-07T07:01:28;99947.78;;;4.14;100.00
59419;BME280;45224;50.904;6.038;2022-12-07T07:02:58;99947.00;;;4.17;100.00
59419;BME280;45224;50.904;6.038;2022-12-07T07:04:29;99947.69;;;4.11;100.00
59419;BME280;45224;50.904;6.038;2022-12-07T07:05:59;99951.25;;;4.16;100.00
59419;BME280;45224;50.904;6.038;2022-12-07T07:07:30;99949.63;;;4.18;100.00
59419;BME280;45224;50.904;6.038;2022-12-07T07:09:00;99953.94;;;4.21;100.00
59419;BME280;45224;50.904;6.038;2022-12-07T07:10:31;99942.75;;;4.17;100.00
59419;BME280;45224;50.904;6.038;2022-12-07T07:12:01;99954.56;;;4.12;100.00
59419;BME280;45224;50.904;6.038;2022-12-07T07:13:32;99954.66;;;4.15;100.00
59419;BME280;45224;50.904;6.038;2022-12-07T07:15:03;99954.75;;;4.18;100.00
59419;BME280;45224;50.904;6.038;2022-12-07T07:16:33;99956.44;;;4.19;100.00
59419;BME280;45224;50.904;6.038;2022-12-07T07:18:04;99956.38;;;4.16;100.00
59419;BME280;45224;50.904;6.038;2022-12-07T07:19:34;99961.56;;;4.19;100.00
59419;BME280;45224;50.904;6.038;2022-12-07T07:21:05;99954.75;;;4.18;100.00
59419;BME280;45224;50.904;6.038;2022-12-07T07:22:35;99951.44;;;4.23;100.00
59419;BME280;45224;50.904;6.038;2022-12-07T07:24:06;99953.25;;;4.27;100.00
59419;BME280;45224;50.904;6.038;2022-12-07T07:25:36;99950.69;;;4.27;100.00
59419;BME280;45224;50.904;6.038;2022-12-07T07:27:07;99954.88;;;4.25;100.00
59419;BME280;45224;50.904;6.038;2022-12-07T07:28:39;99959.19;;;4.26;100.00
59419;BME280;45224;50.904;6.038;2022-12-07T07:30:09;99949.81;;;4.26;100.00
59419;BME280;45224;50.904;6.038;2022-12-07T07:31:40;99954.03;;;4.24;100.00
59419;BME280;45224;50.904;6.038;2022-12-07T07:33:11;99955.81;;;4.27;100.00
59419;BME280;45224;50.904;6.038;2022-12-07T07:34:41;99960.84;;;4.24;100.00
59419;BME280;45224;50.904;6.038;2022-12-07T07:36:12;99954.13;;;4.27;100.00
59419;BME280;45224;50.904;6.038;2022-12-07T07:37:42;99955.56;;;4.17;100.00
59419;BME280;45224;50.904;6.038;2022-12-07T07:39:13;99946.31;;;4.23;100.00
59419;BME280;45224;50.904;6.038;2022-12-07T07:40:43;99956.53;;;4.23;100.00
59419;BME280;45224;50.904;6.038;2022-12-07T07:42:14;99956.53;;;4.23;100.00
59419;BME280;45224;50.904;6.038;2022-12-07T07:43:46;99951.44;;;4.23;100.00
59419;BME280;45224;50.904;6.038;2022-12-07T07:45:17;99959.19;;;4.26;100.00
59419;BME280;45224;50.904;6.038;2022-12-07T07:46:48;99959.00;;;4.19;100.00
59419;BME280;45224;50.904;6.038;2022-12-07T07:48:19;99955.69;;;4.22;100.00
59419;BME280;45224;50.904;6.038;2022-12-07T07:49:49;99953.09;;;4.20;100.00
59419;BME280;45224;50.904;6.038;2022-12-07T07:51:20;99963.44;;;4.25;100.00
59419;BME280;45224;50.904;6.038;2022-12-07T07:52:50;99961.75;;;4.26;100.00
59419;BME280;45224;50.904;6.038;2022-12-07T07:54:21;99957.56;;;4.29;100.00
59419;BME280;45224;50.904;6.038;2022-12-07T07:55:52;99960.09;;;4.28;100.00
59419;BME280;45224;50.904;6.038;2022-12-07T07:57:23;99953.25;;;4.27;100.00
59419;BME280;45224;50.904;6.038;2022-12-07T07:58:54;99959.16;;;4.24;100.00
59419;BME280;45224;50.904;6.038;2022-12-07T08:00:25;99951.34;;;4.19;100.00
59419;BME280;45224;50.904;6.038;2022-12-07T08:01:55;99966.78;;;4.23;100.00
59419;BME280;45224;50.904;6.038;2022-12-07T08:03:26;99957.44;;;4.23;100.00
59419;BME280;45224;50.904;6.038;2022-12-07T08:04:56;99958.16;;;4.19;100.00
59419;BME280;45224;50.904;6.038;2022-12-07T08:06:27;99965.88;;;4.20;100.00
59419;BME280;45224;50.904;6.038;2022-12-07T08:07:57;99961.72;;;4.24;100.00
59419;BME280;45224;50.904;6.038;2022-12-07T08:09:28;99958.03;;;4.14;100.00
59419;BME280;45224;50.904;6.038;2022-12-07T08:10:58;99957.22;;;4.15;100.00
59419;BME280;45224;50.904;6.038;2022-12-07T08:12:35;99961.47;;;4.16;100.00
59419;BME280;45224;50.904;6.038;2022-12-07T08:14:06;99963.22;;;4.17;100.00
59419;BME280;45224;50.904;6.038;2022-12-07T08:15:38;99964.78;;;4.12;100.00
59419;BME280;45224;50.904;6.038;2022-12-07T08:17:09;99959.72;;;4.14;100.00
59419;BME280;45224;50.904;6.038;2022-12-07T08:18:40;99962.97;;;4.08;100.00
59419;BME280;45224;50.904;6.038;2022-12-07T08:20:11;99954.41;;;4.08;100.00
59419;BME280;45224;50.904;6.038;2022-12-07T08:21:41;99964.69;;;4.09;100.00
59419;BME280;45224;50.904;6.038;2022-12-07T08:23:12;99967.97;;;4.05;100.00
59419;BME280;45224;50.904;6.038;2022-12-07T08:24:42;99966.34;;;4.07;100.00
59419;BME280;45224;50.904;6.038;2022-12-07T08:26:15;99961.16;;;4.04;100.00
59419;BME280;45224;50.904;6.038;2022-12-07T08:27:46;99963.81;;;4.07;100.00
59419;BME280;45224;50.904;6.038;2022-12-07T08:29:17;99956.97;;;4.08;100.00